createdAt,value
2019-04-06T00:01:28.619Z,55.47
2019-04-06T00:03:57.366Z,52.23
2019-04-06T00:06:26.115Z,53.00
2019-04-06T00:08:54.881Z,54.87
2019-04-06T00:11:23.644Z,50.57
2019-04-06T00:13:52.409Z,53.90
2019-04-06T00:16:21.240Z,54.37
2019-04-06T00:18:50.009Z,44.83
2019-04-06T00:21:18.834Z,43.33
2019-04-06T00:23:47.579Z,49.43
2019-04-06T00:26:16.343Z,48.37
2019-04-06T00:28:45.076Z,54.43
2019-04-06T00:31:51.404Z,61.57
2019-04-06T00:34:20.422Z,83.23
2019-04-06T00:36:49.151Z,73.90
2019-04-06T00:39:17.975Z,55.90
2019-04-06T00:41:46.991Z,44.50
2019-04-06T00:44:16.903Z,47.97
2019-04-06T00:46:45.849Z,53.60
2019-04-06T00:49:14.571Z,63.63
2019-04-06T00:51:43.395Z,72.67
2019-04-06T00:54:12.128Z,66.47
2019-04-06T00:56:40.883Z,82.97
2019-04-06T00:59:09.794Z,85.00
2019-04-06T01:01:38.536Z,85.63
2019-04-06T01:04:07.365Z,89.43
2019-04-06T01:06:36.195Z,91.43
2019-04-06T01:09:08.898Z,116.87
2019-04-06T01:11:37.730Z,108.80
2019-04-06T01:14:06.544Z,119.07
2019-04-06T01:16:35.300Z,151.10
2019-04-06T01:19:04.115Z,163.50
2019-04-06T01:21:32.825Z,143.97
2019-04-06T01:24:01.581Z,178.77
2019-04-06T01:26:30.347Z,131.13
2019-04-06T01:28:59.277Z,171.73
2019-04-06T01:31:28.364Z,142.93
2019-04-06T01:33:59.030Z,151.23
2019-04-06T01:36:27.625Z,165.30
2019-04-06T01:38:56.399Z,176.03
2019-04-06T01:41:25.256Z,149.97
2019-04-06T01:43:54.149Z,183.60
2019-04-06T01:46:22.903Z,139.17
2019-04-06T01:48:51.639Z,128.73
2019-04-06T01:51:20.420Z,130.53
2019-04-06T01:53:49.181Z,162.53
2019-04-06T01:56:19.053Z,164.53
2019-04-06T01:58:48.055Z,202.90
2019-04-06T02:01:21.744Z,237.03
2019-04-06T02:03:50.935Z,132.30
2019-04-06T02:06:19.729Z,158.47
2019-04-06T02:08:48.557Z,105.70
2019-04-06T02:11:17.327Z,172.53
2019-04-06T02:13:46.181Z,169.60
2019-04-06T02:16:14.921Z,98.43
2019-04-06T02:18:43.681Z,84.43
2019-04-06T02:21:12.430Z,158.07
2019-04-06T02:23:41.439Z,99.33
2019-04-06T02:26:10.532Z,83.93
2019-04-06T02:28:39.285Z,61.90
2019-04-06T02:31:14.684Z,76.80
2019-04-06T02:34:07.898Z,112.07
2019-04-06T02:36:55.702Z,70.10
2019-04-06T02:39:35.033Z,81.50
2019-04-06T02:42:14.715Z,93.27
2019-04-06T02:44:43.464Z,146.90
2019-04-06T02:47:12.257Z,120.47
2019-04-06T02:49:40.999Z,150.77
2019-04-06T02:52:10.048Z,110.53
2019-04-06T02:54:38.789Z,75.33
2019-04-06T02:57:07.519Z,71.07
2019-04-06T02:59:36.514Z,71.97
2019-04-06T03:02:05.502Z,104.97
2019-04-06T03:04:34.263Z,80.00
2019-04-06T03:07:03.070Z,84.67
2019-04-06T03:09:31.882Z,82.00
2019-04-06T03:12:00.696Z,67.23
2019-04-06T03:14:29.467Z,58.80
2019-04-06T03:16:58.278Z,54.17
2019-04-06T03:19:30.629Z,61.97
2019-04-06T03:22:00.066Z,71.70
2019-04-06T03:24:29.874Z,60.77
2019-04-06T03:27:02.443Z,104.67
2019-04-06T03:29:30.642Z,89.77
2019-04-06T03:31:59.945Z,71.37
2019-04-06T03:34:32.209Z,73.50
2019-04-06T03:37:01.090Z,74.97
2019-04-06T03:39:29.867Z,106.97
2019-04-06T03:41:58.647Z,74.87
2019-04-06T03:44:27.388Z,90.03
2019-04-06T03:46:56.630Z,89.30
2019-04-06T03:49:25.425Z,89.43
2019-04-06T03:51:54.535Z,87.60
2019-04-06T03:54:23.284Z,83.90
2019-04-06T03:56:52.314Z,64.93
2019-04-06T03:59:21.067Z,126.77
2019-04-06T04:01:50.088Z,75.77
2019-04-06T04:04:18.926Z,71.23
2019-04-06T04:06:47.652Z,89.77
2019-04-06T04:09:16.680Z,72.33
2019-04-06T04:11:45.413Z,68.40
2019-04-06T04:14:14.297Z,70.20
2019-04-06T04:19:03.515Z,79.40
2019-04-06T04:21:32.298Z,78.37
2019-04-06T04:24:01.144Z,81.77
2019-04-06T04:26:29.953Z,62.27
2019-04-06T04:28:58.721Z,59.23
2019-04-06T04:31:27.457Z,73.83
2019-04-06T04:33:56.209Z,64.13
2019-04-06T04:36:24.960Z,59.27
2019-04-06T04:38:53.861Z,66.17
2019-04-06T04:41:22.618Z,61.57
2019-04-06T04:43:51.371Z,62.67
2019-04-06T04:46:20.112Z,68.13
2019-04-06T04:48:48.877Z,80.23
2019-04-06T04:51:17.754Z,70.83
2019-04-06T04:53:47.937Z,71.87
2019-04-06T04:56:16.688Z,83.80
2019-04-06T04:58:45.510Z,76.70
2019-04-06T05:01:14.247Z,59.43
2019-04-06T05:03:43.012Z,56.80
2019-04-06T05:06:11.751Z,45.33
2019-04-06T05:08:40.516Z,43.63
2019-04-06T05:11:09.251Z,50.20
2019-04-06T05:13:38.013Z,64.67
2019-04-06T05:16:11.210Z,57.23
2019-04-06T05:18:40.819Z,65.83
2019-04-06T05:21:09.725Z,50.30
2019-04-06T05:23:38.812Z,42.10
2019-04-06T05:26:07.807Z,55.93
2019-04-06T05:28:36.892Z,71.20
2019-04-06T05:31:06.140Z,58.13
2019-04-06T05:33:34.915Z,52.13
2019-04-06T05:36:04.514Z,52.57
2019-04-06T05:38:33.338Z,52.27
2019-04-06T05:41:02.093Z,55.03
2019-04-06T05:43:30.828Z,51.03
2019-04-06T05:45:59.584Z,55.50
2019-04-06T05:48:28.419Z,51.30
2019-04-06T05:50:57.261Z,62.60
2019-04-06T05:53:25.997Z,71.57
2019-04-06T05:55:54.839Z,62.07
2019-04-06T05:58:23.879Z,58.00
2019-04-06T06:00:52.756Z,62.27
2019-04-06T06:03:21.463Z,56.10
2019-04-06T06:05:50.203Z,57.67
2019-04-06T06:08:19.134Z,57.67
2019-04-06T06:10:47.917Z,55.27
2019-04-06T06:13:16.665Z,59.57
2019-04-06T06:15:45.500Z,55.87
2019-04-06T06:18:25.357Z,56.97
2019-04-06T06:20:45.505Z,54.03
2019-04-06T06:23:14.579Z,56.47
2019-04-06T06:25:43.331Z,53.00
2019-04-06T06:28:14.943Z,54.57
2019-04-06T06:30:43.133Z,56.30
2019-04-06T06:33:12.011Z,56.23
2019-04-06T06:35:40.881Z,51.93
2019-04-06T06:38:09.898Z,59.97
2019-04-06T06:40:38.801Z,60.57
2019-04-06T06:43:07.516Z,61.63
2019-04-06T06:45:36.378Z,60.63
2019-04-06T06:48:05.426Z,65.23
2019-04-06T06:50:34.693Z,58.43
2019-04-06T06:53:03.841Z,65.57
2019-04-06T06:55:32.982Z,67.20
2019-04-06T06:58:01.854Z,69.67
2019-04-06T07:00:30.608Z,60.53
2019-04-06T07:02:59.785Z,62.77
2019-04-06T07:05:28.797Z,65.60
2019-04-06T07:07:57.854Z,61.83
2019-04-06T07:10:26.694Z,63.37
2019-04-06T07:12:55.515Z,61.57
2019-04-06T07:15:24.308Z,63.60
2019-04-06T07:17:53.153Z,61.43
2019-04-06T07:20:22.066Z,61.03
2019-04-06T07:22:51.133Z,62.30
2019-04-06T07:25:19.894Z,64.17
2019-04-06T07:27:48.638Z,64.27
2019-04-06T07:30:17.812Z,69.80
2019-04-06T07:32:46.497Z,72.67
2019-04-06T07:35:15.404Z,66.60
2019-04-06T07:37:44.498Z,67.17
2019-04-06T07:40:14.515Z,68.20
2019-04-06T07:42:43.488Z,65.13
2019-04-06T07:45:12.913Z,60.13
2019-04-06T07:47:42.751Z,65.27
2019-04-06T07:50:12.927Z,62.27
2019-04-06T07:52:42.652Z,63.37
2019-04-06T07:55:12.774Z,54.40
2019-04-06T07:57:41.954Z,60.40
2019-04-06T08:00:11.241Z,58.77
2019-04-06T08:02:40.077Z,58.13
2019-04-06T08:05:09.088Z,54.43
2019-04-06T08:07:37.956Z,59.40
2019-04-06T08:10:06.956Z,57.27
2019-04-06T08:12:35.702Z,61.30
2019-04-06T08:15:05.472Z,60.73
2019-04-06T08:17:34.305Z,57.00
2019-04-06T08:20:03.120Z,64.10
2019-04-06T08:22:31.874Z,62.40
2019-04-06T08:25:01.100Z,60.47
2019-04-06T08:27:29.838Z,65.77
2019-04-06T08:29:58.608Z,61.53
2019-04-06T08:32:27.504Z,58.90
2019-04-06T08:34:56.320Z,60.77
2019-04-06T08:37:25.075Z,61.23
2019-04-06T08:39:53.877Z,62.70
2019-04-06T08:42:22.642Z,66.53
2019-04-06T08:44:51.394Z,67.43
2019-04-06T08:47:20.225Z,70.30
2019-04-06T08:49:49.319Z,66.90
2019-04-06T08:52:18.077Z,69.73
2019-04-06T08:54:46.817Z,72.53
2019-04-06T08:57:15.574Z,66.23
2019-04-06T08:59:44.326Z,71.17
2019-04-06T09:02:13.160Z,68.37
2019-04-06T09:04:41.915Z,66.27
2019-04-06T09:07:10.750Z,70.40
2019-04-06T09:09:39.747Z,62.67
2019-04-06T09:12:08.445Z,71.23
2019-04-06T09:14:37.218Z,71.27
2019-04-06T09:17:06.117Z,66.40
2019-04-06T09:19:34.847Z,70.73
2019-04-06T09:22:03.678Z,69.27
2019-04-06T09:24:32.503Z,72.13
2019-04-06T09:27:01.272Z,69.77
2019-04-06T09:29:30.070Z,64.13
2019-04-06T09:31:58.856Z,64.40
2019-04-06T09:34:30.554Z,64.80
2019-04-06T09:36:58.486Z,67.87
2019-04-06T09:39:27.273Z,65.83
2019-04-06T09:41:55.989Z,61.07
2019-04-06T09:44:56.224Z,66.10
2019-04-06T09:47:28.956Z,63.70
2019-04-06T09:50:07.176Z,58.37
2019-04-06T09:52:45.394Z,56.73
2019-04-06T09:55:39.282Z,57.93
2019-04-06T09:58:20.149Z,53.80
2019-04-06T10:01:03.868Z,56.73
2019-04-06T10:03:40.359Z,55.00
2019-04-06T10:06:33.738Z,58.03
2019-04-06T10:09:24.819Z,54.50
2019-04-06T10:12:11.624Z,51.43
2019-04-06T10:14:54.007Z,52.37
2019-04-06T10:17:40.669Z,56.37
2019-04-06T10:20:21.761Z,56.07
2019-04-06T10:23:19.128Z,56.77
2019-04-06T10:25:53.616Z,53.13
2019-04-06T10:28:50.340Z,53.47
2019-04-06T10:31:37.501Z,57.53
2019-04-06T10:34:15.560Z,54.63
2019-04-06T10:36:59.857Z,54.23
2019-04-06T10:39:39.353Z,49.57
2019-04-06T10:42:30.527Z,52.50
2019-04-06T10:45:21.688Z,48.30
2019-04-06T10:48:12.231Z,48.30
2019-04-06T10:50:52.046Z,51.20
2019-04-06T10:53:39.022Z,50.13
2019-04-06T10:56:19.807Z,46.33
2019-04-06T10:59:15.426Z,47.47
2019-04-06T11:02:02.549Z,49.00
2019-04-06T11:04:36.305Z,48.47
2019-04-06T11:07:24.296Z,48.80
2019-04-06T11:10:09.345Z,45.77
2019-04-06T11:12:46.022Z,46.03
2019-04-06T11:15:32.885Z,44.67
2019-04-06T11:18:22.721Z,44.00
2019-04-06T11:21:11.105Z,43.10
2019-04-06T11:23:46.861Z,44.97
2019-04-06T11:26:26.997Z,42.33
2019-04-06T11:29:16.865Z,40.40
2019-04-06T11:31:56.954Z,43.97
2019-04-06T11:34:39.179Z,40.60
2019-04-06T11:37:14.894Z,40.57
2019-04-06T11:39:56.157Z,41.07
2019-04-06T11:42:47.189Z,45.53
2019-04-06T11:45:28.150Z,38.67
2019-04-06T11:48:14.576Z,41.63
2019-04-06T11:51:12.118Z,39.90
2019-04-06T11:53:48.773Z,38.17
2019-04-06T11:56:35.108Z,38.10
2019-04-06T11:59:23.025Z,37.77
2019-04-06T12:02:02.162Z,35.70
2019-04-06T12:05:05.488Z,40.83
2019-04-06T12:07:52.072Z,38.43
2019-04-06T12:10:29.180Z,37.27
2019-04-06T12:13:16.089Z,37.63
2019-04-06T12:15:53.635Z,36.90
2019-04-06T12:18:31.992Z,35.27
2019-04-06T12:21:25.619Z,34.87
2019-04-06T12:24:22.889Z,36.40
2019-04-06T12:27:20.284Z,35.50
2019-04-06T12:30:08.780Z,33.87
2019-04-06T12:32:55.731Z,34.20
2019-04-06T12:35:50.216Z,35.20
2019-04-06T12:38:38.127Z,30.37
2019-04-06T12:41:17.232Z,32.77
2019-04-06T12:44:14.513Z,32.37
2019-04-06T12:46:52.890Z,30.03
2019-04-06T12:49:46.656Z,31.30
2019-04-06T12:52:37.274Z,29.57
2019-04-06T12:55:25.500Z,27.83
2019-04-06T12:58:05.808Z,29.17
2019-04-06T13:00:53.299Z,28.07
2019-04-06T13:03:51.413Z,29.17
2019-04-06T13:06:47.042Z,27.70
2019-04-06T13:09:26.574Z,26.50
2019-04-06T13:12:13.070Z,25.13
2019-04-06T13:14:54.445Z,26.80
2019-04-06T13:17:30.131Z,28.00
2019-04-06T13:20:16.985Z,24.70
2019-04-06T13:23:00.779Z,24.60
2019-04-06T13:25:57.637Z,24.40
2019-04-06T13:28:51.508Z,24.60
2019-04-06T13:31:44.992Z,25.23
2019-04-06T13:34:44.928Z,27.57
2019-04-06T13:37:22.705Z,25.03
2019-04-06T13:40:10.521Z,26.80
2019-04-06T13:43:10.679Z,22.50
2019-04-06T13:45:59.307Z,19.40
2019-04-06T13:48:46.001Z,23.53
2019-04-06T13:51:28.828Z,18.63
2019-04-06T13:54:12.323Z,18.07
2019-04-06T13:56:49.492Z,18.03
2019-04-06T13:59:27.332Z,17.73
2019-04-06T14:02:04.946Z,18.87
2019-04-06T14:04:40.909Z,16.73
2019-04-06T14:07:22.541Z,15.47
2019-04-06T14:10:04.538Z,15.33
2019-04-06T14:12:58.346Z,16.37
2019-04-06T14:15:43.263Z,15.93
2019-04-06T14:18:21.176Z,15.63
2019-04-06T14:21:02.854Z,17.63
2019-04-06T14:23:56.905Z,15.93
2019-04-06T14:26:37.380Z,16.27
2019-04-06T14:29:23.873Z,16.60
2019-04-06T14:32:02.710Z,16.90
2019-04-06T14:34:45.898Z,16.93
2019-04-06T14:37:39.825Z,18.03
2019-04-06T14:40:31.632Z,15.13
2019-04-06T14:43:25.156Z,14.90
2019-04-06T14:46:19.418Z,15.27
2019-04-06T14:49:17.186Z,14.43
2019-04-06T14:51:52.997Z,15.67
2019-04-06T14:54:39.995Z,15.23
2019-04-06T14:57:23.786Z,14.87
2019-04-06T15:00:02.770Z,14.80
2019-04-06T15:02:40.271Z,13.13
2019-04-06T15:05:20.997Z,15.17
2019-04-06T15:07:59.004Z,14.93
2019-04-06T15:10:44.312Z,14.33
2019-04-06T15:13:18.982Z,14.43
2019-04-06T15:16:06.878Z,14.97
2019-04-06T15:18:42.256Z,14.03
2019-04-06T15:21:16.645Z,15.27
2019-04-06T15:23:52.915Z,14.73
2019-04-06T15:26:29.528Z,16.20
2019-04-06T15:29:20.158Z,16.40
2019-04-06T15:32:20.490Z,15.57
2019-04-06T15:35:07.292Z,14.67
2019-04-06T15:37:48.985Z,15.60
2019-04-06T15:40:45.939Z,15.40
2019-04-06T15:43:25.198Z,16.30
2019-04-06T15:46:12.095Z,14.93
2019-04-06T15:49:02.807Z,15.33
2019-04-06T15:51:53.647Z,15.97
2019-04-06T15:54:31.503Z,15.47
2019-04-06T15:57:19.589Z,17.47
2019-04-06T15:59:54.586Z,21.60
2019-04-06T16:02:48.479Z,17.10
2019-04-06T16:05:29.229Z,18.57
2019-04-06T16:08:09.452Z,18.77
2019-04-06T16:10:55.380Z,20.90
2019-04-06T16:13:42.207Z,20.00
2019-04-06T16:16:36.121Z,23.40
2019-04-06T16:19:23.185Z,23.40
2019-04-06T16:22:14.144Z,20.73
2019-04-06T16:25:01.971Z,20.97
2019-04-06T16:27:41.085Z,21.17
2019-04-06T16:30:21.622Z,20.50
2019-04-06T16:33:02.752Z,20.33
2019-04-06T16:35:43.840Z,22.13
2019-04-06T16:38:22.103Z,23.33
2019-04-06T16:41:09.588Z,21.30
2019-04-06T16:43:56.543Z,22.30
2019-04-06T16:46:43.657Z,20.27
2019-04-06T16:49:37.965Z,21.77
2019-04-06T16:52:14.009Z,22.73
2019-04-06T16:55:05.437Z,20.87
2019-04-06T16:57:44.928Z,21.60
2019-04-06T17:00:29.636Z,22.00
2019-04-06T17:03:06.713Z,21.90
2019-04-06T17:05:58.330Z,20.23
2019-04-06T17:08:32.370Z,22.80
2019-04-06T17:11:30.811Z,21.27
2019-04-06T17:14:17.517Z,22.23
2019-04-06T17:17:00.754Z,22.87
2019-04-06T17:19:49.587Z,19.93
2019-04-06T17:22:26.284Z,21.70
2019-04-06T17:25:06.771Z,21.47
2019-04-06T17:27:49.237Z,21.00
2019-04-06T17:30:29.547Z,21.07
2019-04-06T17:33:09.981Z,19.77
2019-04-06T17:35:56.111Z,19.63
2019-04-06T17:38:30.466Z,21.57
2019-04-06T17:41:05.422Z,19.07
2019-04-06T17:43:52.507Z,18.20
2019-04-06T17:46:36.887Z,19.60
2019-04-06T17:49:24.755Z,19.60
2019-04-06T17:52:19.393Z,20.97
2019-04-06T17:54:58.221Z,21.57
2019-04-06T17:57:44.799Z,21.00
2019-04-06T18:00:37.060Z,22.27
2019-04-06T18:03:31.369Z,20.60
2019-04-06T18:06:27.475Z,20.37
2019-04-06T18:09:21.047Z,21.07
2019-04-06T18:11:55.176Z,20.40
2019-04-06T18:14:24.668Z,21.70
2019-04-06T18:16:53.353Z,22.70
2019-04-06T18:19:22.354Z,28.13
2019-04-06T18:21:51.093Z,29.07
2019-04-06T18:24:20.233Z,27.10
2019-04-06T18:26:49.121Z,27.73
2019-04-06T18:29:18.407Z,23.87
2019-04-06T18:31:59.183Z,26.90
2019-04-06T18:34:28.529Z,23.70
2019-04-06T18:37:25.729Z,23.53
2019-04-06T18:39:55.714Z,24.23
2019-04-06T18:42:24.542Z,23.93
2019-04-06T18:44:53.406Z,23.60
2019-04-06T18:47:22.132Z,22.87
2019-04-06T18:49:50.887Z,26.27
2019-04-06T18:52:20.078Z,24.97
2019-04-06T18:54:48.854Z,23.83
2019-04-06T18:57:17.592Z,27.23
2019-04-06T18:59:46.359Z,26.37
2019-04-06T19:02:15.115Z,24.50
2019-04-06T19:04:44.036Z,41.85
2019-04-06T19:07:12.950Z,28.77
2019-04-06T19:09:41.862Z,26.33
2019-04-06T19:12:10.721Z,25.33
2019-04-06T19:14:39.512Z,23.97
2019-04-06T19:17:08.502Z,25.10
2019-04-06T19:19:37.434Z,26.10
2019-04-06T19:22:06.129Z,25.23
2019-04-06T19:24:35.119Z,25.10
2019-04-06T19:27:04.471Z,26.60
2019-04-06T19:29:33.198Z,27.50
2019-04-06T19:32:02.841Z,25.90
2019-04-06T19:34:31.593Z,27.30
2019-04-06T19:37:00.356Z,26.50
2019-04-06T19:39:29.199Z,25.83
2019-04-06T19:41:58.375Z,24.70
2019-04-06T19:44:27.268Z,26.33
2019-04-06T19:47:02.765Z,25.50
2019-04-06T19:49:50.131Z,27.50
2019-04-06T19:52:26.719Z,26.73
2019-04-06T19:55:08.992Z,28.30
2019-04-06T19:57:43.689Z,31.63
2019-04-06T20:00:13.366Z,28.93
2019-04-06T20:03:06.369Z,28.60
2019-04-06T20:05:35.611Z,29.77
2019-04-06T20:08:15.401Z,30.10
2019-04-06T20:10:55.467Z,33.50
2019-04-06T20:13:47.447Z,31.43
2019-04-06T20:19:18.045Z,32.07
2019-04-06T20:21:57.902Z,34.53
2019-04-06T20:24:32.811Z,31.30
2019-04-06T20:27:07.128Z,32.07
2019-04-06T20:29:53.501Z,31.73
2019-04-06T20:32:22.290Z,32.53
2019-04-06T20:34:53.632Z,31.93
2019-04-06T20:37:22.649Z,31.37
2019-04-06T20:39:54.289Z,36.57
2019-04-06T20:42:41.616Z,37.47
2019-04-06T20:45:16.816Z,31.23
2019-04-06T20:47:50.661Z,30.17
2019-04-06T20:50:22.401Z,30.77
2019-04-06T20:56:30.272Z,32.40
2019-04-06T20:59:05.393Z,33.37
2019-04-06T21:01:35.962Z,32.27
2019-04-06T21:04:09.215Z,32.17
2019-04-06T21:06:44.030Z,35.50
2019-04-06T21:09:20.044Z,31.87
2019-04-06T21:12:23.696Z,34.57
2019-04-06T21:14:58.877Z,34.00
2019-04-06T21:17:27.935Z,32.57
2019-04-06T21:20:00.196Z,33.73
2019-04-06T21:22:29.529Z,33.30
2019-04-06T21:25:01.779Z,37.30
2019-04-06T21:27:36.232Z,34.50
2019-04-06T21:30:15.209Z,35.40
2019-04-06T21:32:55.472Z,32.40
2019-04-06T21:35:24.362Z,31.57
2019-04-06T21:38:05.531Z,32.57
2019-04-06T21:40:35.102Z,30.87
2019-04-06T21:43:09.076Z,30.40
2019-04-06T21:45:41.039Z,32.70
2019-04-06T21:48:10.449Z,29.83
2019-04-06T21:50:42.366Z,30.60
2019-04-06T21:53:14.899Z,31.37
2019-04-06T21:55:48.380Z,30.43
2019-04-06T21:58:17.721Z,32.30
2019-04-06T22:01:02.663Z,30.43
2019-04-06T22:03:36.515Z,32.10
2019-04-06T22:06:09.935Z,31.63
2019-04-06T22:08:47.087Z,34.30
2019-04-06T22:11:23.966Z,33.70
2019-04-06T22:13:51.462Z,31.53
2019-04-06T22:16:32.506Z,30.23
2019-04-06T22:19:07.945Z,33.37
2019-04-06T22:21:47.250Z,32.33
2019-04-06T22:24:17.118Z,32.47
2019-04-06T22:26:46.363Z,31.23
2019-04-06T22:29:17.297Z,30.97
2019-04-06T22:31:46.416Z,32.70
2019-04-06T22:34:16.466Z,31.73
2019-04-06T22:36:48.111Z,45.73
2019-04-06T22:39:17.183Z,37.23
2019-04-06T22:41:48.192Z,57.80
2019-04-06T22:44:25.338Z,64.70
2019-04-06T22:46:56.813Z,53.67
2019-04-06T22:49:29.379Z,49.90
2019-04-06T22:52:03.587Z,48.10
2019-04-06T22:54:34.452Z,48.57
2019-04-06T22:57:04.363Z,34.87
2019-04-06T22:59:34.709Z,44.57
2019-04-06T23:02:09.327Z,35.57
2019-04-06T23:04:55.047Z,41.73
2019-04-06T23:07:28.063Z,44.73
2019-04-06T23:09:57.695Z,43.20
2019-04-06T23:12:26.828Z,35.27
2019-04-06T23:14:58.262Z,34.43
2019-04-06T23:17:31.818Z,45.03
2019-04-06T23:20:16.330Z,35.40
2019-04-06T23:22:58.149Z,29.77
2019-04-06T23:25:31.390Z,27.97
2019-04-06T23:28:00.273Z,28.20
2019-04-06T23:30:29.638Z,48.23
2019-04-06T23:32:58.504Z,41.23
2019-04-06T23:35:35.917Z,34.47
2019-04-06T23:38:08.540Z,30.40
2019-04-06T23:40:38.839Z,27.70
2019-04-06T23:43:11.733Z,27.70
2019-04-06T23:45:41.139Z,27.33
2019-04-06T23:48:12.800Z,25.87
2019-04-06T23:50:52.939Z,27.57
2019-04-06T23:53:22.026Z,27.93
2019-04-06T23:55:55.291Z,28.33
2019-04-06T23:58:24.470Z,28.20
